createdAt,value
2018-03-21T00:01:22.997Z,37.35
2018-03-21T00:03:51.880Z,32.47
2018-03-21T00:06:20.048Z,36.33
2018-03-21T00:08:48.173Z,36.50
2018-03-21T00:11:16.307Z,35.08
2018-03-21T00:13:44.485Z,30.52
2018-03-21T00:16:12.600Z,35.53
2018-03-21T00:18:40.760Z,40.97
2018-03-21T00:21:09.812Z,41.17
2018-03-21T00:23:37.944Z,37.50
2018-03-21T00:26:06.073Z,35.20
2018-03-21T00:28:34.220Z,34.67
2018-03-21T00:31:02.355Z,37.53
2018-03-21T00:33:30.501Z,39.40
2018-03-21T00:35:58.628Z,32.85
2018-03-21T00:38:26.788Z,38.97
2018-03-21T00:40:55.016Z,38.83
2018-03-21T00:43:23.132Z,37.10
2018-03-21T00:45:51.297Z,32.20
2018-03-21T00:48:19.428Z,33.80
2018-03-21T00:50:47.582Z,37.23
2018-03-21T00:53:15.724Z,37.22
2018-03-21T00:55:43.880Z,42.43
2018-03-21T00:58:12.086Z,44.30
2018-03-21T01:00:40.199Z,42.22
2018-03-21T01:03:08.530Z,35.75
2018-03-21T01:05:36.651Z,33.80
2018-03-21T01:08:04.797Z,36.47
2018-03-21T01:10:32.958Z,38.20
2018-03-21T01:13:01.188Z,39.22
2018-03-21T01:15:29.324Z,38.70
2018-03-21T01:17:57.477Z,37.23
2018-03-21T01:20:25.631Z,35.10
2018-03-21T01:22:53.787Z,31.77
2018-03-21T01:25:21.935Z,41.67
2018-03-21T01:27:50.067Z,34.47
2018-03-21T01:30:18.221Z,36.37
2018-03-21T01:32:46.354Z,34.93
2018-03-21T01:35:14.506Z,36.40
2018-03-21T01:37:42.636Z,34.67
2018-03-21T01:40:10.820Z,34.20
2018-03-21T01:42:38.956Z,39.90
2018-03-21T01:45:07.120Z,36.20
2018-03-21T01:47:35.275Z,37.53
2018-03-21T01:50:03.406Z,39.03
2018-03-21T01:52:31.545Z,33.30
2018-03-21T01:54:59.666Z,37.10
2018-03-21T01:57:27.870Z,35.35
2018-03-21T01:59:56.170Z,40.58
2018-03-21T02:02:24.297Z,34.28
2018-03-21T02:04:52.482Z,33.38
2018-03-21T02:07:20.667Z,30.52
2018-03-21T02:09:48.794Z,45.77
2018-03-21T02:12:17.037Z,40.28
2018-03-21T02:14:45.168Z,36.10
2018-03-21T02:17:13.334Z,36.63
2018-03-21T02:19:41.513Z,34.40
2018-03-21T02:22:09.719Z,43.67
2018-03-21T02:24:37.881Z,38.63
2018-03-21T02:27:06.111Z,37.57
2018-03-21T02:29:34.233Z,36.33
2018-03-21T02:32:02.360Z,43.90
2018-03-21T02:34:30.535Z,40.20
2018-03-21T02:36:58.798Z,38.23
2018-03-21T02:39:26.977Z,40.40
2018-03-21T02:41:55.267Z,41.43
2018-03-21T02:44:23.420Z,43.60
2018-03-21T02:46:53.187Z,42.60
2018-03-21T02:49:21.335Z,40.77
2018-03-21T02:51:49.487Z,39.80
2018-03-21T02:54:17.636Z,40.50
2018-03-21T02:56:45.764Z,36.30
2018-03-21T02:59:14.039Z,47.80
2018-03-21T03:01:42.183Z,48.60
2018-03-21T03:04:10.331Z,43.77
2018-03-21T03:06:38.451Z,41.60
2018-03-21T03:09:06.711Z,46.40
2018-03-21T03:11:34.848Z,47.35
2018-03-21T03:14:03.047Z,46.10
2018-03-21T03:16:31.179Z,46.73
2018-03-21T03:18:59.332Z,43.47
2018-03-21T03:21:27.473Z,41.42
2018-03-21T03:23:55.610Z,46.47
2018-03-21T03:26:23.738Z,44.53
2018-03-21T03:28:51.899Z,47.10
2018-03-21T03:31:20.027Z,43.60
2018-03-21T03:33:48.197Z,43.80
2018-03-21T03:36:16.339Z,51.80
2018-03-21T03:38:44.521Z,50.00
2018-03-21T03:41:12.703Z,46.73
2018-03-21T03:43:40.843Z,47.62
2018-03-21T03:46:09.153Z,49.97
2018-03-21T03:48:37.294Z,46.22
2018-03-21T03:51:05.487Z,50.40
2018-03-21T03:53:33.616Z,50.43
2018-03-21T03:56:01.773Z,47.20
2018-03-21T03:58:29.915Z,48.57
2018-03-21T04:00:58.068Z,58.22
2018-03-21T04:03:26.237Z,54.92
2018-03-21T04:05:54.399Z,56.30
2018-03-21T04:08:22.559Z,49.87
2018-03-21T04:10:50.707Z,50.20
2018-03-21T04:13:18.861Z,50.88
2018-03-21T04:15:46.995Z,50.55
2018-03-21T04:18:15.162Z,44.40
2018-03-21T04:20:43.284Z,49.60
2018-03-21T04:23:11.460Z,52.10
2018-03-21T04:25:39.590Z,50.87
2018-03-21T04:28:07.737Z,47.70
2018-03-21T04:30:35.893Z,54.53
2018-03-21T04:33:04.047Z,50.63
2018-03-21T04:35:32.183Z,45.47
2018-03-21T04:38:00.304Z,58.37
2018-03-21T04:40:28.467Z,49.40
2018-03-21T04:42:56.759Z,43.73
2018-03-21T04:45:24.903Z,51.50
2018-03-21T04:47:53.052Z,54.97
2018-03-21T04:50:21.201Z,53.95
2018-03-21T04:53:07.768Z,50.33
2018-03-21T04:56:17.048Z,51.30
2018-03-21T04:59:23.160Z,51.10
2018-03-21T05:02:29.025Z,62.33
2018-03-21T05:05:35.108Z,60.33
2018-03-21T05:08:41.263Z,49.47
2018-03-21T05:11:47.685Z,55.75
2018-03-21T05:14:53.771Z,51.67
2018-03-21T05:18:00.309Z,53.90
2018-03-21T05:21:07.393Z,47.47
2018-03-21T05:24:13.372Z,50.17
2018-03-21T05:27:19.629Z,48.37
2018-03-21T05:30:25.759Z,51.97
2018-03-21T05:33:31.656Z,50.50
2018-03-21T05:36:37.776Z,53.27
2018-03-21T05:39:43.900Z,55.70
2018-03-21T05:42:49.888Z,62.38
2018-03-21T05:45:56.134Z,54.40
2018-03-21T05:49:01.980Z,51.43
2018-03-21T05:51:37.249Z,55.47
2018-03-21T05:54:07.880Z,52.43
2018-03-21T05:56:36.006Z,52.30
2018-03-21T05:59:04.152Z,51.77
2018-03-21T06:01:32.402Z,62.62
2018-03-21T06:04:00.533Z,51.67
2018-03-21T06:06:28.689Z,58.60
2018-03-21T06:08:56.908Z,49.73
2018-03-21T06:11:25.038Z,64.30
2018-03-21T06:13:53.217Z,55.20
2018-03-21T06:16:21.334Z,55.23
2018-03-21T06:18:49.535Z,56.70
2018-03-21T06:21:17.688Z,50.30
2018-03-21T06:23:45.822Z,55.37
2018-03-21T06:26:14.134Z,58.10
2018-03-21T06:28:42.281Z,52.77
2018-03-21T06:31:10.407Z,55.78
2018-03-21T06:33:38.551Z,60.33
2018-03-21T06:36:06.675Z,60.70
2018-03-21T06:38:34.829Z,58.67
2018-03-21T06:41:02.939Z,66.13
2018-03-21T06:43:31.077Z,60.70
2018-03-21T06:45:59.209Z,63.00
2018-03-21T06:48:27.365Z,59.03
2018-03-21T06:50:55.493Z,59.38
2018-03-21T06:53:23.623Z,53.13
2018-03-21T06:55:51.756Z,50.67
2018-03-21T06:58:19.892Z,49.25
2018-03-21T07:00:48.017Z,55.95
2018-03-21T07:03:16.164Z,57.95
2018-03-21T07:05:44.304Z,48.17
2018-03-21T07:08:12.423Z,51.73
2018-03-21T07:10:40.915Z,51.65
2018-03-21T07:13:09.064Z,57.33
2018-03-21T07:15:49.167Z,53.27
2018-03-21T07:18:17.311Z,47.67
2018-03-21T07:20:45.540Z,54.57
2018-03-21T07:23:13.674Z,44.93
2018-03-21T07:25:41.794Z,52.17
2018-03-21T07:28:09.919Z,65.40
2018-03-21T07:30:38.052Z,101.40
2018-03-21T07:33:06.256Z,55.63
2018-03-21T07:35:34.473Z,52.63
2018-03-21T07:38:02.596Z,64.70
2018-03-21T07:40:30.723Z,54.90
2018-03-21T07:42:58.852Z,47.40
2018-03-21T07:45:26.976Z,64.40
2018-03-21T07:47:55.116Z,50.77
2018-03-21T07:50:24.131Z,55.40
2018-03-21T07:52:52.267Z,51.57
2018-03-21T07:55:20.423Z,56.40
2018-03-21T07:57:48.539Z,54.27
2018-03-21T08:00:16.667Z,52.08
2018-03-21T08:02:44.803Z,54.72
2018-03-21T08:05:12.932Z,54.10
2018-03-21T08:07:41.068Z,59.55
2018-03-21T08:10:09.204Z,57.07
2018-03-21T08:12:37.342Z,59.17
2018-03-21T08:15:05.525Z,57.50
2018-03-21T08:17:33.683Z,48.65
2018-03-21T08:20:02.490Z,52.47
2018-03-21T08:22:30.617Z,56.23
2018-03-21T08:24:58.812Z,52.37
2018-03-21T08:27:26.883Z,54.92
2018-03-21T08:29:55.118Z,55.17
2018-03-21T08:32:23.265Z,54.40
2018-03-21T08:34:51.415Z,46.60
2018-03-21T08:37:19.532Z,58.33
2018-03-21T08:39:47.703Z,57.97
2018-03-21T08:42:15.841Z,63.73
2018-03-21T08:44:43.963Z,64.43
2018-03-21T08:47:12.121Z,50.83
2018-03-21T08:49:40.267Z,53.60
2018-03-21T08:52:08.380Z,57.42
2018-03-21T08:54:36.512Z,52.23
2018-03-21T08:57:04.642Z,59.50
2018-03-21T08:59:32.766Z,53.70
2018-03-21T09:02:01.763Z,59.30
2018-03-21T09:04:29.889Z,58.20
2018-03-21T09:06:58.013Z,54.27
2018-03-21T09:09:26.137Z,56.20
2018-03-21T09:11:54.256Z,60.87
2018-03-21T09:14:22.386Z,53.30
2018-03-21T09:16:50.516Z,65.53
2018-03-21T09:19:18.650Z,53.00
2018-03-21T09:21:46.764Z,54.33
2018-03-21T09:24:14.898Z,62.23
2018-03-21T09:26:43.012Z,55.50
2018-03-21T09:29:11.153Z,51.33
2018-03-21T09:31:39.300Z,55.67
2018-03-21T09:34:07.413Z,60.35
2018-03-21T09:36:35.523Z,58.17
2018-03-21T09:39:03.714Z,62.77
2018-03-21T09:41:31.784Z,58.13
2018-03-21T09:43:59.905Z,53.70
2018-03-21T09:46:28.028Z,55.23
2018-03-21T09:48:56.159Z,62.62
2018-03-21T09:51:24.308Z,55.63
2018-03-21T09:53:52.428Z,59.33
2018-03-21T09:56:20.545Z,55.97
2018-03-21T09:58:48.681Z,59.20
2018-03-21T10:01:16.802Z,63.67
2018-03-21T10:03:44.922Z,54.93
2018-03-21T10:06:13.080Z,67.60
2018-03-21T10:08:41.175Z,55.90
2018-03-21T10:11:10.242Z,65.18
2018-03-21T10:13:38.362Z,56.40
2018-03-21T10:16:06.506Z,56.30
2018-03-21T10:18:34.620Z,61.57
2018-03-21T10:21:02.741Z,65.40
2018-03-21T10:23:30.873Z,57.13
2018-03-21T10:25:59.011Z,63.57
2018-03-21T10:28:27.149Z,64.97
2018-03-21T10:30:55.285Z,53.63
2018-03-21T10:33:23.451Z,74.05
2018-03-21T10:35:51.576Z,68.47
2018-03-21T10:38:19.716Z,64.70
2018-03-21T10:40:47.841Z,62.50
2018-03-21T10:43:15.980Z,64.60
2018-03-21T10:45:44.100Z,66.43
2018-03-21T10:48:12.215Z,61.60
2018-03-21T10:50:40.343Z,72.63
2018-03-21T10:53:08.482Z,62.03
2018-03-21T10:55:36.613Z,67.33
2018-03-21T10:58:04.725Z,66.37
2018-03-21T11:00:32.873Z,67.55
2018-03-21T11:03:02.788Z,68.90
2018-03-21T11:05:30.909Z,63.35
2018-03-21T11:07:59.044Z,72.55
2018-03-21T11:10:27.168Z,65.53
2018-03-21T11:12:55.281Z,69.57
2018-03-21T11:15:23.412Z,67.65
2018-03-21T11:17:51.547Z,67.80
2018-03-21T11:20:19.680Z,64.43
2018-03-21T11:22:47.808Z,66.62
2018-03-21T11:25:15.948Z,89.23
2018-03-21T11:27:44.071Z,74.77
2018-03-21T11:30:12.220Z,71.70
2018-03-21T11:32:40.336Z,77.10
2018-03-21T11:35:08.479Z,73.47
2018-03-21T11:37:36.607Z,72.57
2018-03-21T11:40:04.732Z,79.95
2018-03-21T11:42:32.851Z,76.87
2018-03-21T11:45:01.010Z,72.60
2018-03-21T11:47:29.129Z,69.17
2018-03-21T11:49:57.242Z,76.43
2018-03-21T11:52:25.387Z,68.82
2018-03-21T11:54:53.516Z,64.30
2018-03-21T11:57:21.652Z,68.55
2018-03-21T11:59:49.780Z,60.17
2018-03-21T12:02:17.914Z,63.50
2018-03-21T12:04:46.039Z,56.67
2018-03-21T12:07:14.155Z,60.43
2018-03-21T12:09:42.282Z,68.03
2018-03-21T12:12:10.406Z,61.50
2018-03-21T12:14:38.550Z,56.17
2018-03-21T12:17:06.733Z,62.20
2018-03-21T12:19:34.855Z,56.47
2018-03-21T12:22:03.008Z,64.17
2018-03-21T12:24:31.148Z,64.10
2018-03-21T12:26:59.276Z,67.57
2018-03-21T12:29:27.410Z,73.07
2018-03-21T12:31:56.162Z,68.87
2018-03-21T12:34:24.281Z,65.20
2018-03-21T12:36:52.411Z,79.23
2018-03-21T12:39:20.534Z,66.65
2018-03-21T12:41:48.657Z,65.70
2018-03-21T12:44:16.782Z,85.73
2018-03-21T12:46:44.934Z,77.90
2018-03-21T12:49:13.073Z,83.30
2018-03-21T12:51:41.205Z,81.00
2018-03-21T12:54:09.324Z,79.97
2018-03-21T12:56:37.456Z,82.23
2018-03-21T12:59:05.599Z,78.80
2018-03-21T13:01:33.799Z,79.40
2018-03-21T13:04:01.927Z,73.97
2018-03-21T13:06:30.065Z,69.13
2018-03-21T13:08:58.192Z,69.07
2018-03-21T13:11:26.350Z,59.90
2018-03-21T13:13:54.492Z,59.30
2018-03-21T13:16:22.626Z,50.87
2018-03-21T13:18:50.792Z,52.53
2018-03-21T13:21:19.582Z,54.27
2018-03-21T13:23:47.715Z,48.63
2018-03-21T13:26:15.836Z,47.00
2018-03-21T13:28:44.503Z,47.63
2018-03-21T13:31:12.649Z,41.13
2018-03-21T13:33:40.790Z,41.50
2018-03-21T13:36:08.950Z,45.60
2018-03-21T13:38:37.089Z,43.50
2018-03-21T13:41:05.240Z,46.77
2018-03-21T13:43:33.380Z,50.38
2018-03-21T13:46:01.590Z,46.83
2018-03-21T13:48:29.728Z,43.87
2018-03-21T13:50:57.873Z,44.57
2018-03-21T13:53:26.001Z,42.80
2018-03-21T13:55:54.149Z,49.73
2018-03-21T13:58:22.323Z,47.03
2018-03-21T14:00:50.448Z,43.33
2018-03-21T14:03:18.593Z,42.50
2018-03-21T14:05:46.731Z,45.40
2018-03-21T14:08:14.852Z,43.40
2018-03-21T14:10:42.972Z,47.60
2018-03-21T14:13:11.118Z,37.87
2018-03-21T14:15:39.241Z,28.13
2018-03-21T14:18:07.373Z,25.70
2018-03-21T14:20:35.629Z,28.57
2018-03-21T14:23:03.755Z,21.60
2018-03-21T14:25:31.888Z,25.97
2018-03-21T14:28:00.024Z,27.70
2018-03-21T14:30:28.164Z,31.92
2018-03-21T14:32:56.294Z,34.27
2018-03-21T14:35:24.464Z,22.05
2018-03-21T14:37:52.571Z,24.97
2018-03-21T14:40:20.717Z,29.42
2018-03-21T14:42:48.930Z,23.60
2018-03-21T14:45:17.057Z,33.30
2018-03-21T14:47:45.174Z,28.27
2018-03-21T14:50:13.294Z,26.17
2018-03-21T14:52:41.425Z,26.17
2018-03-21T14:55:10.292Z,28.93
2018-03-21T14:57:38.459Z,28.27
2018-03-21T15:00:06.553Z,27.87
2018-03-21T15:02:34.664Z,26.60
2018-03-21T15:05:02.797Z,26.40
2018-03-21T15:07:30.935Z,28.70
2018-03-21T15:09:59.045Z,27.97
2018-03-21T15:12:27.177Z,29.93
2018-03-21T15:14:55.315Z,25.53
2018-03-21T15:17:23.442Z,25.77
2018-03-21T15:19:51.562Z,29.83
2018-03-21T15:22:19.688Z,26.60
2018-03-21T15:24:47.810Z,23.23
2018-03-21T15:27:16.021Z,25.07
2018-03-21T15:29:44.164Z,23.80
2018-03-21T15:32:12.293Z,25.50
2018-03-21T15:34:40.430Z,22.37
2018-03-21T15:37:08.551Z,24.87
2018-03-21T15:39:36.671Z,23.93
2018-03-21T15:42:04.835Z,25.63
2018-03-21T15:44:32.956Z,20.70
2018-03-21T15:47:03.032Z,21.20
2018-03-21T15:49:31.192Z,24.43
2018-03-21T15:51:59.318Z,23.67
2018-03-21T15:54:27.444Z,22.73
2018-03-21T15:56:55.592Z,27.83
2018-03-21T15:59:23.721Z,20.85
2018-03-21T16:01:51.856Z,20.75
2018-03-21T16:04:20.003Z,21.53
2018-03-21T16:06:48.123Z,20.30
2018-03-21T16:09:16.255Z,21.20
2018-03-21T16:11:44.411Z,19.20
2018-03-21T16:14:12.557Z,21.03
2018-03-21T16:16:40.673Z,22.43
2018-03-21T16:19:08.972Z,29.50
2018-03-21T16:21:37.108Z,21.77
2018-03-21T16:24:05.234Z,23.53
2018-03-21T16:26:33.379Z,21.23
2018-03-21T16:29:01.513Z,24.13
2018-03-21T16:31:29.655Z,25.27
2018-03-21T16:33:57.786Z,19.50
2018-03-21T16:36:25.916Z,26.63
2018-03-21T16:38:54.045Z,22.53
2018-03-21T16:41:22.218Z,22.00
2018-03-21T16:43:50.354Z,22.40
2018-03-21T16:46:18.496Z,21.50
2018-03-21T16:48:46.603Z,21.53
2018-03-21T16:51:14.736Z,26.57
2018-03-21T16:53:42.879Z,20.73
2018-03-21T16:56:11.007Z,25.90
2018-03-21T16:58:39.139Z,25.20
2018-03-21T17:01:07.268Z,28.42
2018-03-21T17:03:35.462Z,28.97
2018-03-21T17:06:03.544Z,23.53
2018-03-21T17:08:31.675Z,27.08
2018-03-21T17:10:59.802Z,25.57
2018-03-21T17:13:27.946Z,39.90
2018-03-21T17:15:56.077Z,26.30
2018-03-21T17:18:24.212Z,29.30
2018-03-21T17:20:53.889Z,26.27
2018-03-21T17:23:22.007Z,27.40
2018-03-21T17:25:50.131Z,28.23
2018-03-21T17:28:18.273Z,51.17
2018-03-21T17:30:46.397Z,45.87
2018-03-21T17:33:14.515Z,45.45
2018-03-21T17:35:42.638Z,39.33
2018-03-21T17:38:10.794Z,38.17
2018-03-21T17:40:38.931Z,38.45
2018-03-21T17:43:07.139Z,39.50
2018-03-21T17:45:35.258Z,54.13
2018-03-21T17:48:03.390Z,31.13
2018-03-21T17:50:31.513Z,37.50
2018-03-21T17:52:59.664Z,38.00
2018-03-21T17:55:27.793Z,45.23
2018-03-21T17:57:55.920Z,46.73
2018-03-21T18:00:24.172Z,44.92
2018-03-21T18:02:52.314Z,41.63
2018-03-21T18:05:20.508Z,51.65
2018-03-21T18:07:48.640Z,54.40
2018-03-21T18:10:16.785Z,50.53
2018-03-21T18:12:44.973Z,55.13
2018-03-21T18:15:13.105Z,40.03
2018-03-21T18:17:41.227Z,36.10
2018-03-21T18:20:09.347Z,49.73
2018-03-21T18:22:37.488Z,46.37
2018-03-21T18:25:05.726Z,39.40
2018-03-21T18:27:33.896Z,50.13
2018-03-21T18:30:02.029Z,41.80
2018-03-21T18:32:30.160Z,43.77
2018-03-21T18:34:58.290Z,35.27
2018-03-21T18:37:26.421Z,52.50
2018-03-21T18:39:54.567Z,34.43
2018-03-21T18:42:22.722Z,40.97
2018-03-21T18:44:50.856Z,49.70
2018-03-21T18:47:19.027Z,65.93
2018-03-21T18:49:47.153Z,43.80
2018-03-21T18:52:15.302Z,35.80
2018-03-21T18:54:43.481Z,35.92
2018-03-21T18:57:11.596Z,37.33
2018-03-21T18:59:39.746Z,32.95
2018-03-21T19:02:07.953Z,40.30
2018-03-21T19:04:36.085Z,52.27
2018-03-21T19:07:04.212Z,134.90
2018-03-21T19:09:32.413Z,42.53
2018-03-21T19:12:00.618Z,48.83
2018-03-21T19:14:28.786Z,50.50
2018-03-21T19:16:56.948Z,48.20
2018-03-21T19:19:25.092Z,36.73
2018-03-21T19:21:53.449Z,41.43
2018-03-21T19:24:21.619Z,37.83
2018-03-21T19:26:49.763Z,44.10
2018-03-21T19:29:17.944Z,42.38
2018-03-21T19:31:46.133Z,40.20
2018-03-21T19:34:14.280Z,36.87
2018-03-21T19:36:42.424Z,41.07
2018-03-21T19:39:10.640Z,34.07
2018-03-21T19:41:38.772Z,36.90
2018-03-21T19:44:06.936Z,48.57
2018-03-21T19:46:35.185Z,35.10
2018-03-21T19:49:03.343Z,35.47
2018-03-21T19:51:31.471Z,32.47
2018-03-21T19:53:59.762Z,43.83
2018-03-21T19:56:27.851Z,32.97
2018-03-21T19:58:55.981Z,36.87
2018-03-21T20:01:24.269Z,35.20
2018-03-21T20:03:52.384Z,33.10
2018-03-21T20:06:20.628Z,33.70
2018-03-21T20:08:48.801Z,30.08
2018-03-21T20:11:16.975Z,35.03
2018-03-21T20:13:45.242Z,33.50
2018-03-21T20:16:13.391Z,34.43
2018-03-21T20:18:41.519Z,34.60
2018-03-21T20:21:09.695Z,38.75
2018-03-21T20:23:38.070Z,36.80
2018-03-21T20:26:06.191Z,40.33
2018-03-21T20:28:34.824Z,38.97
2018-03-21T20:31:03.101Z,40.93
2018-03-21T20:33:31.177Z,40.30
2018-03-21T20:35:59.355Z,46.25
2018-03-21T20:38:28.393Z,42.95
2018-03-21T20:40:56.559Z,46.17
2018-03-21T20:43:24.819Z,49.67
2018-03-21T20:45:52.973Z,50.80
2018-03-21T20:48:22.339Z,46.77
2018-03-21T20:50:50.505Z,48.80
2018-03-21T20:53:21.807Z,52.43
2018-03-21T20:55:49.947Z,48.80
2018-03-21T20:58:18.171Z,46.83
2018-03-21T21:00:46.359Z,48.28
2018-03-21T21:03:15.142Z,51.78
2018-03-21T21:05:43.268Z,57.17
2018-03-21T21:08:11.687Z,48.93
2018-03-21T21:10:39.842Z,48.77
2018-03-21T21:13:08.075Z,48.63
2018-03-21T21:15:36.278Z,50.20
2018-03-21T21:18:04.459Z,45.80
2018-03-21T21:20:32.598Z,43.87
2018-03-21T21:23:00.775Z,50.37
2018-03-21T21:25:28.938Z,38.43
2018-03-21T21:27:57.119Z,43.10
2018-03-21T21:30:25.289Z,47.00
2018-03-21T21:32:57.492Z,41.77
2018-03-21T21:35:25.694Z,43.80
2018-03-21T21:37:53.902Z,45.47
2018-03-21T21:40:22.035Z,47.00
2018-03-21T21:42:50.159Z,40.40
2018-03-21T21:45:18.332Z,41.65
2018-03-21T21:47:46.479Z,49.47
2018-03-21T21:50:15.258Z,42.65
2018-03-21T21:52:43.616Z,43.10
2018-03-21T21:55:11.744Z,41.17
2018-03-21T21:57:39.907Z,44.53
2018-03-21T22:00:08.088Z,41.00
2018-03-21T22:02:36.273Z,34.35
2018-03-21T22:05:04.409Z,35.60
2018-03-21T22:07:32.581Z,33.97
2018-03-21T22:10:00.724Z,39.83
2018-03-21T22:12:28.860Z,43.87
2018-03-21T22:14:57.004Z,36.47
2018-03-21T22:17:25.143Z,41.20
2018-03-21T22:19:53.472Z,39.53
2018-03-21T22:22:21.753Z,35.23
2018-03-21T22:24:49.868Z,36.00
2018-03-21T22:27:18.011Z,41.83
2018-03-21T22:29:46.177Z,46.03
2018-03-21T22:32:14.299Z,59.23
2018-03-21T22:34:42.428Z,42.08
2018-03-21T22:37:10.620Z,46.07
2018-03-21T22:39:38.754Z,46.37
2018-03-21T22:42:06.876Z,42.00
2018-03-21T22:44:35.126Z,47.17
2018-03-21T22:47:03.305Z,40.57
2018-03-21T22:49:31.377Z,44.97
2018-03-21T22:51:59.675Z,40.00
2018-03-21T22:54:27.872Z,38.87
2018-03-21T22:56:56.577Z,46.57
2018-03-21T22:59:24.708Z,38.30
2018-03-21T23:01:52.839Z,42.17
2018-03-21T23:04:21.338Z,46.00
2018-03-21T23:06:49.488Z,41.75
2018-03-21T23:09:17.617Z,36.33
2018-03-21T23:11:45.752Z,42.83
2018-03-21T23:14:13.910Z,41.53
2018-03-21T23:16:44.287Z,34.87
2018-03-21T23:19:12.769Z,42.67
2018-03-21T23:21:40.925Z,37.50
2018-03-21T23:24:09.068Z,33.90
2018-03-21T23:26:37.196Z,36.47
2018-03-21T23:29:05.336Z,38.80
2018-03-21T23:31:33.469Z,37.97
2018-03-21T23:34:01.630Z,35.23
2018-03-21T23:36:29.805Z,35.60
2018-03-21T23:38:57.933Z,37.43
2018-03-21T23:41:27.318Z,36.08
2018-03-21T23:43:55.448Z,32.67
2018-03-21T23:46:23.598Z,27.45
2018-03-21T23:48:51.748Z,35.03
2018-03-21T23:51:19.890Z,31.55
2018-03-21T23:53:48.174Z,28.40
2018-03-21T23:56:16.353Z,28.03
2018-03-21T23:58:44.575Z,34.73
